createdAt,value
2017-12-29T00:02:19.459Z,306.33
2017-12-29T00:18:04.005Z,262.20
2017-12-29T01:16:40.289Z,214.67
2017-12-29T01:41:23.244Z,223.50
2017-12-29T02:18:20.950Z,224.67
2017-12-29T02:21:16.729Z,220.33
2017-12-29T02:27:23.043Z,221.50
2017-12-29T02:30:14.822Z,339.00
2017-12-29T02:33:07.979Z,248.33
2017-12-29T02:35:47.558Z,239.00
2017-12-29T02:44:30.934Z,220.00
2017-12-29T02:47:18.087Z,257.17
2017-12-29T02:50:07.433Z,194.67
2017-12-29T02:52:58.715Z,195.75
2017-12-29T02:56:00.045Z,266.00
2017-12-29T02:58:41.024Z,226.67
2017-12-29T03:12:17.559Z,228.25
2017-12-29T03:14:55.496Z,267.75
2017-12-29T03:17:43.220Z,262.83
2017-12-29T03:20:18.175Z,212.67
2017-12-29T03:22:56.608Z,234.17
2017-12-29T03:25:36.391Z,246.17
2017-12-29T03:28:11.118Z,205.25
2017-12-29T03:30:49.484Z,235.50
2017-12-29T03:33:23.046Z,231.00
2017-12-29T03:35:56.188Z,222.75
2017-12-29T03:38:30.612Z,273.67
2017-12-29T03:41:04.470Z,296.60
2017-12-29T03:43:43.174Z,254.17
2017-12-29T03:46:20.304Z,244.00
2017-12-29T03:48:54.790Z,240.00
2017-12-29T03:51:37.808Z,310.83
2017-12-29T03:54:14.981Z,328.80
2017-12-29T03:56:52.931Z,270.83
2017-12-29T03:59:30.365Z,322.25
2017-12-29T04:02:09.149Z,330.67
2017-12-29T04:04:46.531Z,270.40
2017-12-29T04:07:24.091Z,321.20
2017-12-29T04:09:58.964Z,283.60
2017-12-29T04:12:37.652Z,361.80
2017-12-29T04:15:16.047Z,371.83
2017-12-29T04:17:52.867Z,406.17
2017-12-29T04:20:29.282Z,334.80
2017-12-29T04:23:03.078Z,335.40
2017-12-29T04:25:39.774Z,251.67
2017-12-29T04:28:17.491Z,346.33
2017-12-29T04:30:49.546Z,266.67
2017-12-29T04:33:25.429Z,230.25
2017-12-29T04:36:02.656Z,356.00
2017-12-29T04:38:39.066Z,307.50
2017-12-29T04:41:17.215Z,291.60
2017-12-29T04:43:55.837Z,303.67
2017-12-29T04:46:32.358Z,367.80
2017-12-29T04:49:08.780Z,391.40
2017-12-29T04:51:43.629Z,340.75
2017-12-29T04:54:20.176Z,424.00
2017-12-29T04:56:59.602Z,410.00
2017-12-29T04:59:36.387Z,343.60
2017-12-29T05:02:21.684Z,372.67
2017-12-29T05:05:02.474Z,347.80
2017-12-29T05:07:38.632Z,318.20
2017-12-29T05:10:18.140Z,376.67
2017-12-29T05:12:55.020Z,412.83
2017-12-29T05:15:31.054Z,441.00
2017-12-29T05:18:08.593Z,362.80
2017-12-29T05:20:44.312Z,358.60
2017-12-29T05:23:29.244Z,328.20
2017-12-29T05:26:06.079Z,398.00
2017-12-29T05:28:42.687Z,318.80
2017-12-29T05:31:20.227Z,364.17
2017-12-29T05:33:56.010Z,327.80
2017-12-29T05:36:32.283Z,456.00
2017-12-29T05:39:10.108Z,454.20
2017-12-29T05:41:46.344Z,464.60
2017-12-29T05:44:25.535Z,457.00
2017-12-29T05:47:13.610Z,434.60
2017-12-29T05:49:50.491Z,459.67
2017-12-29T05:52:28.147Z,438.33
2017-12-29T05:55:04.737Z,403.83
2017-12-29T05:57:41.539Z,431.00
2017-12-29T06:00:19.249Z,353.60
2017-12-29T06:02:55.215Z,436.00
2017-12-29T06:05:33.036Z,392.83
2017-12-29T06:08:11.872Z,396.50
2017-12-29T06:10:48.419Z,365.80
2017-12-29T06:13:25.952Z,379.67
2017-12-29T06:16:02.586Z,385.33
2017-12-29T06:18:39.137Z,372.33
2017-12-29T06:21:15.104Z,345.00
2017-12-29T06:23:50.934Z,359.40
2017-12-29T06:26:28.108Z,367.60
2017-12-29T06:29:04.030Z,336.40
2017-12-29T06:31:39.791Z,302.60
2017-12-29T06:34:17.160Z,201.00
2017-12-29T06:36:50.424Z,138.25
2017-12-29T06:39:23.596Z,100.50
2017-12-29T06:41:56.273Z,96.00
2017-12-29T06:44:28.083Z,93.33
2017-12-29T06:47:01.544Z,86.67
2017-12-29T06:49:33.663Z,86.67
2017-12-29T06:52:05.982Z,88.00
2017-12-29T06:54:39.902Z,119.50
2017-12-29T06:57:13.171Z,167.25
2017-12-29T06:59:46.859Z,184.50
2017-12-29T07:02:20.134Z,178.50
2017-12-29T07:04:53.342Z,161.75
2017-12-29T07:07:28.480Z,160.25
2017-12-29T07:10:01.804Z,174.50
2017-12-29T07:12:35.168Z,169.25
2017-12-29T07:15:09.617Z,180.00
2017-12-29T07:17:43.049Z,165.00
2017-12-29T07:20:16.367Z,159.50
2017-12-29T07:22:51.796Z,162.00
2017-12-29T07:25:24.649Z,169.75
2017-12-29T07:27:58.075Z,169.75
2017-12-29T07:30:32.748Z,168.75
2017-12-29T07:33:05.566Z,151.00
2017-12-29T07:35:39.044Z,154.75
2017-12-29T07:38:12.964Z,162.50
2017-12-29T07:40:46.037Z,142.50
2017-12-29T07:43:19.148Z,153.50
2017-12-29T07:45:51.802Z,118.75
2017-12-29T07:48:24.862Z,141.75
2017-12-29T07:50:58.410Z,136.00
2017-12-29T07:53:31.842Z,151.25
2017-12-29T07:56:04.722Z,158.25
2017-12-29T07:58:38.356Z,138.25
2017-12-29T08:01:12.773Z,149.25
2017-12-29T08:03:47.598Z,142.50
2017-12-29T08:06:23.425Z,120.00
2017-12-29T08:08:56.823Z,105.25
2017-12-29T08:11:30.669Z,110.25
2017-12-29T08:16:40.628Z,128.00
2017-12-29T08:19:14.087Z,117.00
2017-12-29T08:21:47.951Z,124.25
2017-12-29T08:24:20.825Z,117.00
2017-12-29T08:26:53.866Z,107.00
2017-12-29T08:29:28.180Z,107.00
2017-12-29T08:32:01.832Z,124.75
2017-12-29T08:34:36.058Z,109.00
2017-12-29T08:37:09.677Z,132.50
2017-12-29T08:39:42.406Z,127.25
2017-12-29T08:42:15.148Z,100.50
2017-12-29T08:44:48.263Z,119.50
2017-12-29T08:47:21.318Z,111.50
2017-12-29T08:49:54.367Z,117.00
2017-12-29T08:52:27.759Z,107.50
2017-12-29T08:54:59.795Z,104.00
2017-12-29T08:57:46.270Z,117.00
2017-12-29T09:00:26.636Z,101.50
2017-12-29T09:05:27.610Z,113.75
2017-12-29T09:07:59.907Z,102.33
2017-12-29T09:10:33.498Z,103.50
2017-12-29T09:13:06.180Z,104.00
2017-12-29T09:15:39.685Z,101.33
2017-12-29T09:18:18.849Z,95.00
2017-12-29T09:20:51.627Z,102.00
2017-12-29T09:23:24.400Z,87.33
2017-12-29T09:25:56.631Z,91.67
2017-12-29T09:28:30.384Z,87.67
2017-12-29T09:31:03.092Z,85.67
2017-12-29T09:33:35.837Z,97.00
2017-12-29T09:36:09.528Z,94.67
2017-12-29T09:38:42.530Z,84.33
2017-12-29T09:41:15.850Z,82.67
2017-12-29T09:43:48.369Z,80.33
2017-12-29T09:46:21.273Z,87.00
2017-12-29T09:49:08.760Z,92.33
2017-12-29T09:51:43.063Z,88.33
2017-12-29T09:54:47.463Z,84.33
2017-12-29T10:09:42.379Z,89.33
2017-12-29T10:15:52.417Z,93.00
2017-12-29T10:21:25.996Z,81.67
2017-12-29T10:24:28.038Z,83.00
2017-12-29T10:27:11.359Z,82.67
2017-12-29T10:39:05.967Z,84.00
2017-12-29T10:41:51.546Z,86.00
2017-12-29T10:44:39.783Z,77.67
2017-12-29T10:47:14.007Z,75.67
2017-12-29T10:52:32.638Z,73.67
2017-12-29T10:55:09.812Z,76.00
2017-12-29T10:57:46.082Z,78.00
2017-12-29T11:00:30.013Z,75.33
2017-12-29T11:03:08.167Z,74.00
2017-12-29T11:09:02.934Z,62.67
2017-12-29T11:11:47.706Z,53.00
2017-12-29T11:14:22.679Z,55.33
2017-12-29T11:17:04.473Z,67.33
2017-12-29T11:19:37.634Z,63.33
2017-12-29T11:22:15.706Z,55.00
2017-12-29T11:25:00.737Z,51.50
2017-12-29T11:27:41.931Z,60.33
2017-12-29T11:35:25.747Z,51.67
2017-12-29T11:44:29.999Z,60.67
2017-12-29T11:47:07.979Z,62.00
2017-12-29T11:49:49.469Z,68.33
2017-12-29T11:52:28.283Z,60.67
2017-12-29T11:55:19.612Z,63.00
2017-12-29T11:58:03.993Z,68.00
2017-12-29T12:00:50.802Z,62.33
2017-12-29T12:03:39.898Z,59.33
2017-12-29T12:06:41.207Z,66.33
2017-12-29T12:09:19.923Z,65.00
2017-12-29T12:18:02.585Z,57.67
2017-12-29T12:20:52.134Z,58.00
2017-12-29T12:23:42.623Z,50.00
2017-12-29T12:27:03.447Z,55.67
2017-12-29T12:39:12.886Z,61.00
2017-12-29T12:45:38.531Z,56.67
2017-12-29T12:48:23.639Z,57.67
2017-12-29T12:54:48.941Z,60.33
2017-12-29T12:57:48.446Z,46.00
2017-12-29T13:00:42.790Z,53.33
2017-12-29T13:03:24.664Z,42.67
2017-12-29T13:27:17.095Z,57.67
2017-12-29T13:35:50.914Z,36.33
2017-12-29T13:51:03.981Z,45.00
2017-12-29T14:12:56.925Z,51.33
2017-12-29T14:33:46.609Z,59.00
2017-12-29T14:45:56.869Z,37.33
2017-12-29T14:49:47.438Z,42.33
2017-12-29T14:56:10.661Z,38.33
2017-12-29T15:05:53.700Z,41.33
2017-12-29T15:18:13.467Z,42.25
2017-12-29T15:21:03.509Z,50.25
2017-12-29T15:24:00.329Z,44.67
2017-12-29T15:30:10.496Z,39.00
2017-12-29T15:53:20.524Z,39.00
2017-12-29T17:30:40.822Z,35.33
2017-12-29T17:33:51.206Z,37.33
2017-12-29T17:37:55.574Z,35.67
2017-12-29T17:40:53.124Z,36.33
2017-12-29T17:44:27.491Z,32.00
2017-12-29T18:08:44.868Z,33.33
2017-12-29T21:41:22.458Z,80.67
2017-12-29T21:51:19.266Z,72.33
2017-12-29T22:00:22.475Z,71.00
2017-12-29T22:06:44.642Z,78.33
2017-12-29T22:09:54.300Z,79.67
2017-12-29T22:12:38.674Z,87.33
2017-12-29T22:15:27.481Z,94.00
2017-12-29T22:18:37.416Z,82.25
2017-12-29T22:24:35.397Z,97.33
2017-12-29T22:27:26.078Z,95.00
2017-12-29T22:36:49.766Z,128.25
2017-12-29T22:40:05.861Z,123.75
2017-12-29T22:45:39.804Z,102.00
2017-12-29T22:48:33.590Z,113.00
2017-12-29T22:51:15.760Z,95.33
2017-12-29T22:54:03.895Z,99.67
